createdAt,value
2017-05-27T00:01:51.735Z,57.20
2017-05-27T00:04:18.660Z,57.30
2017-05-27T00:06:45.612Z,57.50
2017-05-27T00:09:12.548Z,58.30
2017-05-27T00:11:39.475Z,58.40
2017-05-27T00:14:06.398Z,58.40
2017-05-27T00:16:33.343Z,58.50
2017-05-27T00:19:00.275Z,58.40
2017-05-27T00:21:27.203Z,58.20
2017-05-27T00:23:54.117Z,58.40
2017-05-27T00:26:21.057Z,57.80
2017-05-27T00:28:47.973Z,57.60
2017-05-27T00:31:14.892Z,57.70
2017-05-27T00:33:41.884Z,57.90
2017-05-27T00:36:08.788Z,58.10
2017-05-27T00:38:35.711Z,58.00
2017-05-27T00:41:02.677Z,58.60
2017-05-27T00:43:29.592Z,58.20
2017-05-27T00:45:56.507Z,58.30
2017-05-27T00:48:23.456Z,58.20
2017-05-27T00:50:50.463Z,58.30
2017-05-27T00:53:17.371Z,58.30
2017-05-27T00:55:44.319Z,58.60
2017-05-27T00:58:11.240Z,58.50
2017-05-27T01:00:38.175Z,58.80
2017-05-27T01:03:05.050Z,58.80
2017-05-27T01:05:33.040Z,58.90
2017-05-27T01:07:59.957Z,58.90
2017-05-27T01:10:26.901Z,58.90
2017-05-27T01:12:53.820Z,59.00
2017-05-27T01:15:20.728Z,59.00
2017-05-27T01:17:47.670Z,58.90
2017-05-27T01:20:14.619Z,58.90
2017-05-27T01:22:41.568Z,59.00
2017-05-27T01:25:08.516Z,58.90
2017-05-27T01:27:35.445Z,58.90
2017-05-27T01:30:02.392Z,58.90
2017-05-27T01:32:29.360Z,58.70
2017-05-27T01:34:56.321Z,58.70
2017-05-27T01:37:23.237Z,58.60
2017-05-27T01:39:50.167Z,58.60
2017-05-27T01:42:17.188Z,58.90
2017-05-27T01:44:44.118Z,58.80
2017-05-27T01:47:11.049Z,59.40
2017-05-27T01:49:37.993Z,58.80
2017-05-27T01:52:04.908Z,58.60
2017-05-27T01:54:31.860Z,58.70
2017-05-27T01:56:58.782Z,58.60
2017-05-27T01:59:25.684Z,58.60
2017-05-27T02:01:52.655Z,58.70
2017-05-27T02:04:19.576Z,59.00
2017-05-27T02:06:46.488Z,59.20
2017-05-27T02:09:13.449Z,59.30
2017-05-27T02:11:40.368Z,59.50
2017-05-27T02:14:07.324Z,59.40
2017-05-27T02:16:34.283Z,59.70
2017-05-27T02:19:01.199Z,59.40
2017-05-27T02:21:28.104Z,59.20
2017-05-27T02:23:55.053Z,59.30
2017-05-27T02:26:21.985Z,58.90
2017-05-27T02:28:49.319Z,58.50
2017-05-27T02:31:16.231Z,58.80
2017-05-27T02:33:43.135Z,58.70
2017-05-27T02:36:10.089Z,59.00
2017-05-27T02:38:36.989Z,59.30
2017-05-27T02:41:03.908Z,59.40
2017-05-27T02:43:30.906Z,59.50
2017-05-27T02:45:57.794Z,59.40
2017-05-27T02:48:24.703Z,59.50
2017-05-27T02:50:51.653Z,59.10
2017-05-27T02:53:18.564Z,58.80
2017-05-27T02:55:45.471Z,58.90
2017-05-27T02:58:12.399Z,58.50
2017-05-27T03:00:39.352Z,58.40
2017-05-27T03:03:06.298Z,58.50
2017-05-27T03:05:33.215Z,58.60
2017-05-27T03:08:00.228Z,58.80
2017-05-27T03:10:27.146Z,58.60
2017-05-27T03:12:54.076Z,58.90
2017-05-27T03:15:21.031Z,58.60
2017-05-27T03:17:47.971Z,58.60
2017-05-27T03:20:14.879Z,58.30
2017-05-27T03:22:41.812Z,58.00
2017-05-27T03:25:08.791Z,58.40
2017-05-27T03:27:35.701Z,58.90
2017-05-27T03:30:02.956Z,58.30
2017-05-27T03:32:29.971Z,58.00
2017-05-27T03:34:56.877Z,58.70
2017-05-27T03:37:23.788Z,58.70
2017-05-27T03:39:50.733Z,58.80
2017-05-27T03:42:17.668Z,58.60
2017-05-27T03:44:44.585Z,58.60
2017-05-27T03:47:11.504Z,58.40
2017-05-27T03:49:38.457Z,58.50
2017-05-27T03:52:05.355Z,58.50
2017-05-27T03:54:32.285Z,57.70
2017-05-27T03:56:59.229Z,58.20
2017-05-27T03:59:26.144Z,58.30
2017-05-27T04:01:53.057Z,58.00
2017-05-27T04:04:19.995Z,58.20
2017-05-27T04:06:46.909Z,58.50
2017-05-27T04:09:13.925Z,58.80
2017-05-27T04:11:40.912Z,58.70
2017-05-27T04:14:07.819Z,58.30
2017-05-27T04:16:34.756Z,57.30
2017-05-27T04:19:01.732Z,57.30
2017-05-27T04:21:28.646Z,57.50
2017-05-27T04:23:55.560Z,57.50
2017-05-27T04:26:22.503Z,56.50
2017-05-27T04:28:49.404Z,56.40
2017-05-27T04:31:16.352Z,56.50
2017-05-27T04:33:43.297Z,56.10
2017-05-27T04:36:10.216Z,55.00
2017-05-27T04:38:37.207Z,55.00
2017-05-27T04:41:04.121Z,55.80
2017-05-27T04:43:31.036Z,56.60
2017-05-27T04:45:57.983Z,54.80
2017-05-27T04:48:24.955Z,54.80
2017-05-27T04:50:51.877Z,54.40
2017-05-27T04:53:18.824Z,53.80
2017-05-27T04:55:45.735Z,53.40
2017-05-27T04:58:12.639Z,53.10
2017-05-27T05:00:39.575Z,53.60
2017-05-27T05:03:06.496Z,53.20
2017-05-27T05:05:33.412Z,53.00
2017-05-27T05:08:00.435Z,52.40
2017-05-27T05:10:27.344Z,52.10
2017-05-27T05:12:54.320Z,52.40
2017-05-27T05:15:21.283Z,52.40
2017-05-27T05:17:48.216Z,51.60
2017-05-27T05:20:15.125Z,52.00
2017-05-27T05:22:42.163Z,51.50
2017-05-27T05:25:09.077Z,52.00
2017-05-27T05:27:35.997Z,52.40
2017-05-27T05:30:02.945Z,52.10
2017-05-27T05:32:30.752Z,51.90
2017-05-27T05:34:57.671Z,50.90
2017-05-27T05:37:24.608Z,50.70
2017-05-27T05:39:51.565Z,50.70
2017-05-27T05:42:18.482Z,50.50
2017-05-27T05:44:45.383Z,48.90
2017-05-27T05:47:12.335Z,50.70
2017-05-27T05:49:40.196Z,51.00
2017-05-27T05:52:07.136Z,50.70
2017-05-27T05:54:34.064Z,50.70
2017-05-27T05:57:01.019Z,50.00
2017-05-27T05:59:27.933Z,49.40
2017-05-27T06:01:54.855Z,49.70
2017-05-27T06:04:21.811Z,49.80
2017-05-27T06:06:48.711Z,50.00
2017-05-27T06:09:15.648Z,50.20
2017-05-27T06:11:42.671Z,50.40
2017-05-27T06:14:09.584Z,50.40
2017-05-27T06:16:36.544Z,50.10
2017-05-27T06:19:03.514Z,50.40
2017-05-27T06:21:30.436Z,48.90
2017-05-27T06:23:57.387Z,48.30
2017-05-27T06:26:24.324Z,47.60
2017-05-27T06:28:51.257Z,46.60
2017-05-27T06:31:18.208Z,45.70
2017-05-27T06:33:45.160Z,45.30
2017-05-27T06:36:12.083Z,45.00
2017-05-27T06:38:38.997Z,44.70
2017-05-27T06:41:05.966Z,44.50
2017-05-27T06:43:32.888Z,42.20
2017-05-27T06:45:59.799Z,42.20
2017-05-27T06:48:26.733Z,41.30
2017-05-27T06:50:53.643Z,40.90
2017-05-27T06:53:20.553Z,40.30
2017-05-27T06:55:47.516Z,39.50
2017-05-27T06:58:14.924Z,40.00
2017-05-27T07:00:41.836Z,40.40
2017-05-27T07:03:08.805Z,40.50
2017-05-27T07:05:35.744Z,39.50
2017-05-27T07:08:02.858Z,39.10
2017-05-27T07:10:29.812Z,39.60
2017-05-27T07:12:56.732Z,39.80
2017-05-27T07:15:23.656Z,39.00
2017-05-27T07:17:50.619Z,38.10
2017-05-27T07:20:17.553Z,38.00
2017-05-27T07:22:44.515Z,37.80
2017-05-27T07:25:11.444Z,36.30
2017-05-27T07:27:38.425Z,35.80
2017-05-27T07:30:05.389Z,35.50
2017-05-27T07:32:32.329Z,34.50
2017-05-27T07:34:59.277Z,33.20
2017-05-27T07:37:26.272Z,35.10
2017-05-27T07:39:53.289Z,35.00
2017-05-27T07:42:20.266Z,34.00
2017-05-27T07:44:47.213Z,32.30
2017-05-27T07:47:14.247Z,32.30
2017-05-27T07:49:41.220Z,32.10
2017-05-27T07:52:08.180Z,31.80
2017-05-27T07:54:35.185Z,29.80
2017-05-27T07:57:02.126Z,30.70
2017-05-27T07:59:29.140Z,32.90
2017-05-27T08:01:56.472Z,32.40
2017-05-27T08:04:23.427Z,32.30
2017-05-27T08:06:50.404Z,32.80
2017-05-27T08:09:17.365Z,33.30
2017-05-27T08:11:44.385Z,32.80
2017-05-27T08:14:11.338Z,31.90
2017-05-27T08:16:38.296Z,30.00
2017-05-27T08:19:05.288Z,30.10
2017-05-27T08:21:32.281Z,29.60
2017-05-27T08:23:59.208Z,28.40
2017-05-27T08:26:26.188Z,29.00
2017-05-27T08:28:53.113Z,28.80
2017-05-27T08:31:20.033Z,28.20
2017-05-27T08:33:52.923Z,27.70
2017-05-27T08:36:19.870Z,27.50
2017-05-27T08:38:46.841Z,26.80
2017-05-27T08:41:13.778Z,26.30
2017-05-27T08:43:40.704Z,26.70
2017-05-27T08:46:07.713Z,26.40
2017-05-27T08:48:34.643Z,26.50
2017-05-27T08:51:00.844Z,26.50
2017-05-27T08:53:27.836Z,25.80
2017-05-27T08:55:54.811Z,24.90
2017-05-27T08:58:21.760Z,25.40
2017-05-27T09:00:48.716Z,25.20
2017-05-27T09:03:15.706Z,25.20
2017-05-27T09:05:42.694Z,25.40
2017-05-27T09:08:09.739Z,25.50
2017-05-27T09:10:36.681Z,25.40
2017-05-27T09:13:03.657Z,26.00
2017-05-27T09:15:30.627Z,25.10
2017-05-27T09:17:57.565Z,24.10
2017-05-27T09:20:24.536Z,24.30
2017-05-27T09:22:51.473Z,24.20
2017-05-27T09:25:18.432Z,24.90
2017-05-27T09:27:45.435Z,23.80
2017-05-27T09:30:12.457Z,24.10
2017-05-27T09:32:39.413Z,23.60
2017-05-27T09:35:06.392Z,24.20
2017-05-27T09:37:33.342Z,23.90
2017-05-27T09:40:00.356Z,24.50
2017-05-27T09:42:27.356Z,24.00
2017-05-27T09:44:54.290Z,23.60
2017-05-27T09:47:21.296Z,23.40
2017-05-27T09:49:48.312Z,22.90
2017-05-27T09:52:15.266Z,22.20
2017-05-27T09:54:42.252Z,22.80
2017-05-27T09:57:09.510Z,22.80
2017-05-27T09:59:36.472Z,22.20
2017-05-27T10:02:03.422Z,21.60
2017-05-27T10:04:30.460Z,22.10
2017-05-27T10:06:57.457Z,22.60
2017-05-27T10:09:24.908Z,23.60
2017-05-27T10:11:51.847Z,22.50
2017-05-27T10:14:18.802Z,22.50
2017-05-27T10:16:45.766Z,22.50
2017-05-27T10:19:12.715Z,21.40
2017-05-27T10:21:39.653Z,21.70
2017-05-27T10:24:05.863Z,21.70
2017-05-27T10:26:32.855Z,21.60
2017-05-27T10:28:59.807Z,21.10
2017-05-27T10:31:26.736Z,20.50
2017-05-27T10:33:53.718Z,21.60
2017-05-27T10:36:20.668Z,21.80
2017-05-27T10:38:47.597Z,21.30
2017-05-27T10:41:14.549Z,21.20
2017-05-27T10:43:41.498Z,21.80
2017-05-27T10:46:08.461Z,21.50
2017-05-27T10:48:35.444Z,22.40
2017-05-27T10:51:02.429Z,22.00
2017-05-27T10:53:29.428Z,21.70
2017-05-27T10:55:56.385Z,22.90
2017-05-27T10:58:24.042Z,22.10
2017-05-27T11:00:50.977Z,22.10
2017-05-27T11:03:17.156Z,22.10
2017-05-27T11:05:44.109Z,23.00
2017-05-27T11:08:11.042Z,22.20
2017-05-27T11:10:38.012Z,22.70
2017-05-27T11:13:04.988Z,23.30
2017-05-27T11:15:31.909Z,23.10
2017-05-27T11:17:58.837Z,23.30
2017-05-27T11:20:25.825Z,22.90
2017-05-27T11:22:52.748Z,23.30
2017-05-27T11:25:19.676Z,23.60
2017-05-27T11:27:46.644Z,23.70
2017-05-27T11:30:13.584Z,23.90
2017-05-27T11:32:40.511Z,24.10
2017-05-27T11:35:07.478Z,24.00
2017-05-27T11:37:34.400Z,23.90
2017-05-27T11:40:01.358Z,24.30
2017-05-27T11:42:28.405Z,24.50
2017-05-27T11:44:55.329Z,25.50
2017-05-27T11:47:22.316Z,25.80
2017-05-27T11:49:49.244Z,26.00
2017-05-27T11:52:16.160Z,26.40
2017-05-27T11:54:43.129Z,27.20
2017-05-27T11:57:10.074Z,26.60
2017-05-27T11:59:37.016Z,26.60
2017-05-27T12:02:04.653Z,28.10
2017-05-27T12:04:32.539Z,27.70
2017-05-27T12:06:58.825Z,27.60
2017-05-27T12:09:26.547Z,27.60
2017-05-27T12:11:53.464Z,27.40
2017-05-27T12:14:20.385Z,28.40
2017-05-27T12:16:47.344Z,28.00
2017-05-27T12:19:14.284Z,28.40
2017-05-27T12:21:41.212Z,28.40
2017-05-27T12:24:08.174Z,28.10
2017-05-27T12:26:35.111Z,28.30
2017-05-27T12:29:02.099Z,29.10
2017-05-27T12:31:28.297Z,29.10
2017-05-27T12:33:55.246Z,29.80
2017-05-27T12:36:22.213Z,29.30
2017-05-27T12:38:49.265Z,30.20
2017-05-27T12:41:16.200Z,29.70
2017-05-27T12:43:43.168Z,30.20
2017-05-27T12:46:10.161Z,31.70
2017-05-27T12:48:37.099Z,29.60
2017-05-27T12:51:03.314Z,29.60
2017-05-27T12:53:30.342Z,30.00
2017-05-27T12:55:57.312Z,30.00
2017-05-27T12:58:24.262Z,30.00
2017-05-27T13:00:50.546Z,30.10
2017-05-27T13:03:17.486Z,30.90
2017-05-27T13:05:44.443Z,32.50
2017-05-27T13:08:11.411Z,31.80
2017-05-27T13:10:38.341Z,31.00
2017-05-27T13:13:05.306Z,31.80
2017-05-27T13:15:32.263Z,31.70
2017-05-27T13:17:59.217Z,30.50
2017-05-27T13:20:26.173Z,31.00
2017-05-27T13:22:53.169Z,31.10
2017-05-27T13:25:20.100Z,32.50
2017-05-27T13:27:47.024Z,33.30
2017-05-27T13:30:13.984Z,32.60
2017-05-27T13:32:41.752Z,32.20
2017-05-27T13:35:08.673Z,30.30
2017-05-27T13:37:35.633Z,31.40
2017-05-27T13:40:02.573Z,32.60
2017-05-27T13:42:29.523Z,32.30
2017-05-27T13:44:56.477Z,31.90
2017-05-27T13:47:23.404Z,32.90
2017-05-27T13:49:50.341Z,30.90
2017-05-27T13:52:16.572Z,31.30
2017-05-27T13:54:43.497Z,31.70
2017-05-27T13:57:10.426Z,32.60
2017-05-27T13:59:37.716Z,31.90
2017-05-27T14:02:04.644Z,31.00
2017-05-27T14:04:31.605Z,32.80
2017-05-27T14:06:58.571Z,31.40
2017-05-27T14:09:25.512Z,31.40
2017-05-27T14:11:52.428Z,31.20
2017-05-27T14:14:19.380Z,32.30
2017-05-27T14:16:46.307Z,31.30
2017-05-27T14:19:13.244Z,32.30
2017-05-27T14:21:40.238Z,33.40
2017-05-27T14:24:07.172Z,32.30
2017-05-27T14:26:34.108Z,31.90
2017-05-27T14:29:01.055Z,31.90
2017-05-27T14:31:27.982Z,32.90
2017-05-27T14:33:54.942Z,33.20
2017-05-27T14:36:21.918Z,32.60
2017-05-27T14:38:49.088Z,31.60
2017-05-27T14:41:16.014Z,32.30
2017-05-27T14:43:43.001Z,33.70
2017-05-27T14:46:09.932Z,33.50
2017-05-27T14:48:36.864Z,33.50
2017-05-27T14:51:03.817Z,32.80
2017-05-27T14:53:30.738Z,32.80
2017-05-27T14:55:57.683Z,33.90
2017-05-27T14:58:24.630Z,33.60
2017-05-27T15:00:51.543Z,34.40
2017-05-27T15:03:18.459Z,32.90
2017-05-27T15:05:45.410Z,34.10
2017-05-27T15:08:12.339Z,32.90
2017-05-27T15:10:39.276Z,33.50
2017-05-27T15:13:06.249Z,33.40
2017-05-27T15:15:32.424Z,33.30
2017-05-27T15:17:59.341Z,32.90
2017-05-27T15:20:26.293Z,33.00
2017-05-27T15:22:53.224Z,33.60
2017-05-27T15:25:20.136Z,33.90
2017-05-27T15:27:47.154Z,33.40
2017-05-27T15:30:14.083Z,33.60
2017-05-27T15:32:40.992Z,33.90
2017-05-27T15:35:07.944Z,34.50
2017-05-27T15:37:34.869Z,35.30
2017-05-27T15:40:01.779Z,33.90
2017-05-27T15:42:28.746Z,35.20
2017-05-27T15:44:55.658Z,34.20
2017-05-27T15:47:22.576Z,34.60
2017-05-27T15:49:49.523Z,35.10
2017-05-27T15:52:16.491Z,34.70
2017-05-27T15:54:43.400Z,35.60
2017-05-27T15:57:10.363Z,35.40
2017-05-27T15:59:37.277Z,36.40
2017-05-27T16:02:04.272Z,35.20
2017-05-27T16:04:31.247Z,35.90
2017-05-27T16:06:58.157Z,35.30
2017-05-27T16:09:25.116Z,35.30
2017-05-27T16:11:52.028Z,35.40
2017-05-27T16:14:18.960Z,35.70
2017-05-27T16:16:45.912Z,35.30
2017-05-27T16:19:12.840Z,35.30
2017-05-27T16:21:39.836Z,35.70
2017-05-27T16:24:06.776Z,35.10
2017-05-27T16:26:33.708Z,35.20
2017-05-27T16:29:00.637Z,36.40
2017-05-27T16:31:27.576Z,36.50
2017-05-27T16:33:54.493Z,36.70
2017-05-27T16:36:21.450Z,36.20
2017-05-27T16:38:48.400Z,36.40
2017-05-27T16:41:15.319Z,36.60
2017-05-27T16:43:42.676Z,35.50
2017-05-27T16:46:09.596Z,37.20
2017-05-27T16:48:36.539Z,36.40
2017-05-27T16:51:03.454Z,37.10
2017-05-27T16:53:30.428Z,36.90
2017-05-27T16:55:57.374Z,37.30
2017-05-27T16:58:24.321Z,36.70
2017-05-27T17:00:51.276Z,36.20
2017-05-27T17:03:18.198Z,36.00
2017-05-27T17:05:45.111Z,35.90
2017-05-27T17:08:12.052Z,36.10
2017-05-27T17:10:38.968Z,36.00
2017-05-27T17:13:05.925Z,36.60
2017-05-27T17:15:32.841Z,35.70
2017-05-27T17:17:59.824Z,36.00
2017-05-27T17:20:26.763Z,36.40
2017-05-27T17:22:53.679Z,36.70
2017-05-27T17:25:20.619Z,36.70
2017-05-27T17:27:47.597Z,36.90
2017-05-27T17:30:14.522Z,36.70
2017-05-27T17:32:41.536Z,37.10
2017-05-27T17:35:08.525Z,37.00
2017-05-27T17:37:35.439Z,37.10
2017-05-27T17:40:02.369Z,37.20
2017-05-27T17:42:29.324Z,37.50
2017-05-27T17:44:56.252Z,37.80
2017-05-27T17:47:23.168Z,37.80
2017-05-27T17:49:50.117Z,37.50
2017-05-27T17:52:17.086Z,38.00
2017-05-27T17:54:44.012Z,37.50
2017-05-27T17:57:10.956Z,37.10
2017-05-27T17:59:37.936Z,37.30
2017-05-27T18:02:04.848Z,37.00
2017-05-27T18:04:31.753Z,37.40
2017-05-27T18:06:58.726Z,37.60
2017-05-27T18:09:25.645Z,38.00
2017-05-27T18:11:52.573Z,38.30
2017-05-27T18:14:19.553Z,38.10
2017-05-27T18:16:46.487Z,38.80
2017-05-27T18:19:13.457Z,38.90
2017-05-27T18:21:40.943Z,39.30
2017-05-27T18:24:07.989Z,39.70
2017-05-27T18:26:34.932Z,39.90
2017-05-27T18:29:01.852Z,40.10
2017-05-27T18:31:28.771Z,40.30
2017-05-27T18:33:55.741Z,40.70
2017-05-27T18:36:22.661Z,40.90
2017-05-27T18:38:49.579Z,40.80
2017-05-27T18:41:16.504Z,41.10
2017-05-27T18:43:43.490Z,41.40
2017-05-27T18:46:10.476Z,41.80
2017-05-27T18:48:37.389Z,42.30
2017-05-27T18:51:04.292Z,41.50
2017-05-27T18:53:31.248Z,41.70
2017-05-27T18:55:58.152Z,41.90
2017-05-27T18:58:25.085Z,41.90
2017-05-27T19:00:52.039Z,42.20
2017-05-27T19:03:18.950Z,42.30
2017-05-27T19:05:45.918Z,42.90
2017-05-27T19:08:12.885Z,43.00
2017-05-27T19:10:39.825Z,43.20
2017-05-27T19:13:06.738Z,43.20
2017-05-27T19:15:33.732Z,43.30
2017-05-27T19:18:00.645Z,43.30
2017-05-27T19:20:27.568Z,43.40
2017-05-27T19:22:54.547Z,43.60
2017-05-27T19:25:21.469Z,43.90
2017-05-27T19:27:48.388Z,44.10
2017-05-27T19:30:15.375Z,44.30
2017-05-27T19:32:42.323Z,44.40
2017-05-27T19:35:09.241Z,44.80
2017-05-27T19:37:36.196Z,44.80
2017-05-27T19:40:03.115Z,44.80
2017-05-27T19:42:30.098Z,45.20
2017-05-27T19:44:57.041Z,45.50
2017-05-27T19:47:23.960Z,45.40
2017-05-27T19:49:50.926Z,45.70
2017-05-27T19:52:17.857Z,45.80
2017-05-27T19:54:44.781Z,46.10
2017-05-27T19:57:11.720Z,46.10
2017-05-27T19:59:38.649Z,46.30
2017-05-27T20:02:05.607Z,46.30
2017-05-27T20:04:32.538Z,46.20
2017-05-27T20:06:59.473Z,46.40
2017-05-27T20:09:26.420Z,46.70
2017-05-27T20:11:53.341Z,46.80
2017-05-27T20:14:20.260Z,46.90
2017-05-27T20:16:47.213Z,46.80
2017-05-27T20:19:14.124Z,47.00
2017-05-27T20:21:41.061Z,47.20
2017-05-27T20:24:07.995Z,47.30
2017-05-27T20:26:34.989Z,47.30
2017-05-27T20:29:01.915Z,47.30
2017-05-27T20:31:28.887Z,47.50
2017-05-27T20:33:55.848Z,47.60
2017-05-27T20:36:22.765Z,47.50
2017-05-27T20:38:49.678Z,47.50
2017-05-27T20:41:16.623Z,47.40
2017-05-27T20:43:43.545Z,47.50
2017-05-27T20:46:10.460Z,47.60
2017-05-27T20:48:37.409Z,47.60
2017-05-27T20:51:04.349Z,47.60
2017-05-27T20:53:31.267Z,47.90
2017-05-27T20:55:58.223Z,48.00
2017-05-27T20:58:25.127Z,48.00
2017-05-27T21:00:52.084Z,48.10
2017-05-27T21:03:19.013Z,48.10
2017-05-27T21:05:45.931Z,48.10
2017-05-27T21:08:12.879Z,48.10
2017-05-27T21:10:39.809Z,47.80
2017-05-27T21:13:06.765Z,47.60
2017-05-27T21:15:34.052Z,47.20
2017-05-27T21:18:00.976Z,48.20
2017-05-27T21:20:27.907Z,47.50
2017-05-27T21:22:54.873Z,47.60
2017-05-27T21:25:21.815Z,47.50
2017-05-27T21:27:48.723Z,47.80
2017-05-27T21:30:15.726Z,47.90
2017-05-27T21:32:42.670Z,48.10
2017-05-27T21:35:09.628Z,48.20
2017-05-27T21:37:36.577Z,48.40
2017-05-27T21:40:03.519Z,48.50
2017-05-27T21:42:30.477Z,48.60
2017-05-27T21:44:57.411Z,48.70
2017-05-27T21:47:24.334Z,48.90
2017-05-27T21:49:51.291Z,49.00
2017-05-27T21:52:18.266Z,48.90
2017-05-27T21:54:45.184Z,49.10
2017-05-27T21:57:12.163Z,48.90
2017-05-27T21:59:39.078Z,49.00
2017-05-27T22:02:05.988Z,49.30
2017-05-27T22:04:33.005Z,49.40
2017-05-27T22:06:59.925Z,49.60
2017-05-27T22:09:26.864Z,49.60
2017-05-27T22:11:53.977Z,49.70
2017-05-27T22:14:20.900Z,50.70
2017-05-27T22:16:47.808Z,49.90
2017-05-27T22:19:14.755Z,50.00
2017-05-27T22:21:41.689Z,50.00
2017-05-27T22:24:08.744Z,50.10
2017-05-27T22:26:35.660Z,50.20
2017-05-27T22:29:02.581Z,50.40
2017-05-27T22:31:29.527Z,50.40
2017-05-27T22:33:56.476Z,50.50
2017-05-27T22:36:23.392Z,50.60
2017-05-27T22:38:50.316Z,50.60
2017-05-27T22:41:17.263Z,50.70
2017-05-27T22:43:44.201Z,50.80
2017-05-27T22:46:11.270Z,50.80
2017-05-27T22:48:38.167Z,50.80
2017-05-27T22:51:05.112Z,50.80
2017-05-27T22:53:32.036Z,50.80
2017-05-27T22:55:58.982Z,50.80
2017-05-27T22:58:25.941Z,50.90
2017-05-27T23:00:52.849Z,50.80
2017-05-27T23:03:19.799Z,50.80
2017-05-27T23:05:46.717Z,50.80
2017-05-27T23:08:13.660Z,50.60
2017-05-27T23:10:40.600Z,50.70
2017-05-27T23:13:07.517Z,50.70
2017-05-27T23:15:34.427Z,50.80
2017-05-27T23:18:01.382Z,50.60
2017-05-27T23:20:28.345Z,50.90
2017-05-27T23:22:55.250Z,51.10
2017-05-27T23:25:22.154Z,51.10
2017-05-27T23:27:48.355Z,51.10
2017-05-27T23:30:15.236Z,50.90
2017-05-27T23:32:42.149Z,51.00
2017-05-27T23:35:09.103Z,51.00
2017-05-27T23:37:36.054Z,51.10
2017-05-27T23:40:02.984Z,51.10
2017-05-27T23:42:29.979Z,51.10
2017-05-27T23:44:56.948Z,51.10
2017-05-27T23:47:23.864Z,51.50
2017-05-27T23:49:50.768Z,51.40
2017-05-27T23:52:17.749Z,51.50
2017-05-27T23:54:44.655Z,51.60
2017-05-27T23:57:11.573Z,51.70
2017-05-27T23:59:38.525Z,51.90
